Time;durP1;ratioP1;P1;durP2;ratioP2;P2;SDS_P1;SDS_P2;PMS_P1;PMS_P2;Temp;Humidity;BMP_temperature;BMP_pressure;BME280_temperature;BME280_humidity;BME280_pressure;Samples;Min_cycle;Max_cycle;Signal;HPM_P1;HPM_P2
2023/03/05 00:00:11;;;;;;;3.50;1.80;;;21.20;32.20;;;;;;5052637;28;20039;-52
2023/03/05 00:02:41;;;;;;;5.45;2.25;;;21.20;32.30;;;;;;5051522;28;20029;-52
2023/03/05 00:05:07;;;;;;;4.65;2.30;;;21.20;32.30;;;;;;5053321;28;20349;-50
2023/03/05 00:07:34;;;;;;;5.50;2.40;;;21.20;32.40;;;;;;5050807;28;20040;-53
2023/03/05 00:10:01;;;;;;;5.50;1.83;;;21.20;32.40;;;;;;5055530;28;20338;-54
2023/03/05 00:12:27;;;;;;;3.58;1.95;;;21.20;32.40;;;;;;5053494;28;20044;-52
2023/03/05 00:14:53;;;;;;;3.50;2.00;;;21.20;32.40;;;;;;5052725;28;20077;-53
2023/03/05 00:17:19;;;;;;;4.18;1.90;;;21.20;32.40;;;;;;5051959;28;20025;-54
2023/03/05 00:19:45;;;;;;;4.95;1.70;;;21.20;32.40;;;;;;5052529;28;20044;-53
2023/03/05 00:22:11;;;;;;;3.55;1.67;;;21.10;32.30;;;;;;5052340;28;20020;-55
2023/03/05 00:24:37;;;;;;;4.25;1.92;;;21.10;32.30;;;;;;5053796;28;20393;-52
2023/03/05 00:27:02;;;;;;;3.35;1.90;;;21.10;32.30;;;;;;5052971;28;20063;-53
2023/03/05 00:29:29;;;;;;;4.60;2.17;;;21.10;32.30;;;;;;5049874;28;20096;-51
2023/03/05 00:31:55;;;;;;;3.50;1.52;;;21.10;32.40;;;;;;5052456;28;20032;-53
2023/03/05 00:34:21;;;;;;;4.45;2.15;;;21.10;33.10;;;;;;5050451;28;20384;-54
2023/03/05 00:36:49;;;;;;;4.22;2.03;;;21.10;32.40;;;;;;5052070;28;20036;-51
2023/03/05 00:39:16;;;;;;;3.45;2.10;;;21.10;32.40;;;;;;5052531;28;20024;-50
2023/03/05 00:41:43;;;;;;;5.00;1.55;;;21.10;32.40;;;;;;5053087;28;20033;-54
2023/03/05 00:44:09;;;;;;;2.72;1.70;;;21.10;32.40;;;;;;5053348;28;20104;-55
2023/03/05 00:46:35;;;;;;;2.95;1.50;;;21.00;32.30;;;;;;5052178;28;20116;-50
2023/03/05 00:49:01;;;;;;;2.85;1.52;;;21.00;32.30;;;;;;5050645;28;20033;-53
2023/03/05 00:51:27;;;;;;;2.60;1.35;;;21.00;32.30;;;;;;5051804;28;20090;-55
2023/03/05 00:53:53;;;;;;;3.60;1.70;;;21.00;32.30;;;;;;5053057;28;20025;-50
2023/03/05 00:56:19;;;;;;;3.45;1.60;;;21.00;32.30;;;;;;5052727;28;20405;-49
2023/03/05 00:58:45;;;;;;;4.18;1.50;;;21.00;32.30;;;;;;5051585;28;20131;-52
2023/03/05 01:01:12;;;;;;;3.00;1.48;;;21.00;32.40;;;;;;5052382;28;20029;-52
2023/03/05 01:03:38;;;;;;;4.00;1.65;;;21.00;32.40;;;;;;5051904;28;20410;-52
2023/03/05 01:06:06;;;;;;;3.13;1.48;;;21.00;32.40;;;;;;5051974;28;20119;-53
2023/03/05 01:08:33;;;;;;;4.00;1.73;;;21.00;32.40;;;;;;5057744;28;20055;-55
2023/03/05 01:10:58;;;;;;;4.63;1.75;;;21.00;32.40;;;;;;5051839;28;20056;-54
2023/03/05 01:13:24;;;;;;;4.70;2.03;;;21.00;32.40;;;;;;5056475;28;20069;-51
2023/03/05 01:15:50;;;;;;;3.60;1.45;;;21.00;32.40;;;;;;5056831;28;20040;-53
2023/03/05 01:18:18;;;;;;;3.22;1.25;;;21.00;32.40;;;;;;5060139;28;20359;-53
2023/03/05 01:20:44;;;;;;;5.30;2.00;;;20.90;32.40;;;;;;5053861;28;20047;-52
2023/03/05 01:23:10;;;;;;;3.35;1.52;;;21.00;32.40;;;;;;5054989;28;20033;-54
2023/03/05 01:25:36;;;;;;;3.15;1.27;;;20.90;32.40;;;;;;5057210;28;20033;-54
2023/03/05 01:28:02;;;;;;;4.15;1.50;;;20.90;32.40;;;;;;5066318;28;20028;-52
2023/03/05 01:30:28;;;;;;;2.80;1.27;;;20.90;32.40;;;;;;5062367;28;20511;-55
2023/03/05 01:32:55;;;;;;;4.03;1.40;;;20.90;32.40;;;;;;5056556;28;20032;-55
2023/03/05 01:35:23;;;;;;;3.88;1.27;;;20.90;32.40;;;;;;5053208;28;20384;-53
2023/03/05 01:37:49;;;;;;;2.30;1.27;;;20.90;32.40;;;;;;5055284;28;20057;-53
2023/03/05 01:40:18;;;;;;;3.05;1.35;;;20.90;32.40;;;;;;5053266;28;20145;-53
2023/03/05 01:42:48;;;;;;;4.13;1.35;;;20.90;32.40;;;;;;5054116;28;20098;-54
2023/03/05 01:45:17;;;;;;;3.25;1.30;;;20.80;32.40;;;;;;5055104;28;20024;-52
2023/03/05 01:47:44;;;;;;;4.38;1.60;;;20.90;32.40;;;;;;5055383;28;20131;-53
2023/03/05 01:50:15;;;;;;;2.47;1.25;;;20.80;32.40;;;;;;5056054;28;20063;-55
2023/03/05 01:52:45;;;;;;;2.88;1.23;;;20.80;32.40;;;;;;5056077;28;20124;-52
2023/03/05 01:55:15;;;;;;;3.67;1.20;;;20.80;32.40;;;;;;5053766;28;20043;-53
2023/03/05 01:57:45;;;;;;;2.03;1.15;;;20.80;32.50;;;;;;5053234;28;20044;-54
2023/03/05 02:00:26;;;;;;;3.03;1.45;;;20.80;32.50;;;;;;5054674;28;20364;-52
2023/03/05 02:02:52;;;;;;;4.18;1.60;;;20.80;32.50;;;;;;5053737;28;20124;-54
2023/03/05 02:05:31;;;;;;;2.92;1.30;;;20.80;32.50;;;;;;5053308;28;20090;-55
2023/03/05 02:07:59;;;;;;;3.63;1.35;;;20.80;32.50;;;;;;5055029;28;20024;-54
2023/03/05 02:10:29;;;;;;;3.22;1.60;;;20.80;32.50;;;;;;5056393;28;20044;-55
2023/03/05 02:12:58;;;;;;;3.70;1.20;;;20.80;32.50;;;;;;5054300;28;20376;-51
2023/03/05 02:15:24;;;;;;;2.95;1.20;;;20.80;32.60;;;;;;5055004;28;20441;-54
2023/03/05 02:17:49;;;;;;;2.53;1.38;;;20.70;32.50;;;;;;5051406;28;20044;-52
2023/03/05 02:20:19;;;;;;;2.42;1.00;;;20.70;32.50;;;;;;5052136;28;20049;-51
2023/03/05 02:22:45;;;;;;;3.20;1.45;;;20.80;32.50;;;;;;5054389;28;20036;-54
2023/03/05 02:25:18;;;;;;;3.38;1.40;;;20.70;32.50;;;;;;5054530;28;20033;-50
2023/03/05 02:28:04;;;;;;;3.28;1.38;;;20.70;32.50;;;;;;5054530;28;20108;-54
2023/03/05 02:30:30;;;;;;;4.10;1.38;;;20.80;32.50;;;;;;5054989;28;20111;-54
2023/03/05 02:32:57;;;;;;;4.63;1.42;;;20.70;32.40;;;;;;5052553;28;20112;-54
2023/03/05 02:35:24;;;;;;;2.03;1.17;;;20.70;32.40;;;;;;5054392;28;20333;-52
2023/03/05 02:37:50;;;;;;;2.05;0.93;;;20.70;32.50;;;;;;5054284;28;20029;-51
2023/03/05 02:40:16;;;;;;;2.80;1.27;;;20.70;32.40;;;;;;5055185;28;20055;-50
2023/03/05 02:42:42;;;;;;;2.72;1.27;;;20.70;32.40;;;;;;5054194;28;20032;-54
2023/03/05 02:45:10;;;;;;;2.45;1.05;;;20.70;32.50;;;;;;5053021;28;20017;-52
2023/03/05 02:47:36;;;;;;;4.43;1.27;;;20.70;32.40;;;;;;5054164;28;20457;-54
2023/03/05 02:50:04;;;;;;;2.50;1.08;;;20.70;32.40;;;;;;5055083;28;20064;-51
2023/03/05 02:52:30;;;;;;;3.95;1.10;;;20.70;32.50;;;;;;5054002;28;20104;-54
2023/03/05 02:54:56;;;;;;;3.10;1.00;;;20.70;32.40;;;;;;5053551;28;20040;-51
2023/03/05 02:57:23;;;;;;;2.45;1.10;;;20.70;32.40;;;;;;5054203;28;20475;-53
2023/03/05 02:59:49;;;;;;;2.55;1.30;;;20.70;32.50;;;;;;5053889;28;20037;-54
2023/03/05 03:02:15;;;;;;;3.58;1.65;;;20.60;32.40;;;;;;5052893;28;20056;-54
2023/03/05 03:04:42;;;;;;;2.13;0.90;;;20.60;32.40;;;;;;5053020;28;20017;-53
2023/03/05 03:07:10;;;;;;;2.47;1.05;;;20.60;32.40;;;;;;5054971;28;20120;-55
2023/03/05 03:09:37;;;;;;;2.85;1.17;;;20.60;32.30;;;;;;5053672;28;20021;-54
2023/03/05 03:12:03;;;;;;;3.03;1.20;;;20.60;32.30;;;;;;5054458;28;20094;-55
2023/03/05 03:14:37;;;;;;;4.20;1.25;;;20.60;32.30;;;;;;5054775;28;20428;-54
2023/03/05 03:17:11;;;;;;;;;;;20.60;32.30;;;;;;5054915;28;20075;-52
2023/03/05 03:19:37;;;;;;;2.70;1.20;;;20.60;32.30;;;;;;5052058;28;19957;-54
2023/03/05 03:22:03;;;;;;;4.60;1.30;;;20.60;32.30;;;;;;5054588;28;20017;-54
2023/03/05 03:24:30;;;;;;;3.25;1.20;;;20.60;32.30;;;;;;5053814;28;20043;-57
2023/03/05 03:26:56;;;;;;;2.65;1.30;;;20.60;32.30;;;;;;5054019;28;20068;-55
2023/03/05 03:29:21;;;;;;;3.75;1.35;;;20.60;32.30;;;;;;5052577;28;20025;-53
2023/03/05 03:31:47;;;;;;;2.63;1.02;;;20.50;32.30;;;;;;5052837;28;20021;-52
2023/03/05 03:34:15;;;;;;;2.85;1.40;;;20.50;32.30;;;;;;5054765;28;20035;-55
2023/03/05 03:36:45;;;;;;;3.80;1.25;;;20.50;32.30;;;;;;5053689;28;20025;-51
2023/03/05 03:39:13;;;;;;;3.13;1.13;;;20.50;32.30;;;;;;5054002;28;20029;-52
2023/03/05 03:41:44;;;;;;;1.83;1.00;;;20.60;32.30;;;;;;5054001;28;20103;-52
2023/03/05 03:44:10;;;;;;;3.08;1.13;;;20.60;32.30;;;;;;5050305;28;20095;-53
2023/03/05 03:46:37;;;;;;;4.55;1.58;;;20.50;32.30;;;;;;5054000;28;20124;-54
2023/03/05 03:49:03;;;;;;;2.25;1.02;;;20.50;32.30;;;;;;5053761;28;20021;-50
2023/03/05 03:51:29;;;;;;;2.25;0.90;;;20.50;32.30;;;;;;5053477;28;20056;-54
2023/03/05 03:53:55;;;;;;;2.88;1.00;;;20.50;32.30;;;;;;5053594;28;20057;-54
2023/03/05 03:56:21;;;;;;;4.07;1.20;;;20.50;32.30;;;;;;5053030;28;20032;-51
2023/03/05 03:58:51;;;;;;;3.33;1.10;;;20.50;32.30;;;;;;5053921;28;20029;-53
2023/03/05 04:01:18;;;;;;;2.45;1.17;;;20.50;32.30;;;;;;5052345;28;20066;-53
2023/03/05 04:03:44;;;;;;;2.00;0.90;;;20.50;32.30;;;;;;5049462;28;20038;-53
2023/03/05 04:06:10;;;;;;;3.90;1.17;;;20.50;32.30;;;;;;5052243;28;20047;-51
2023/03/05 04:08:36;;;;;;;5.25;1.27;;;20.50;32.30;;;;;;5055858;28;20100;-53
2023/03/05 04:11:02;;;;;;;3.92;1.23;;;20.50;32.30;;;;;;5052071;28;20029;-55
2023/03/05 04:13:28;;;;;;;3.20;1.27;;;20.50;32.30;;;;;;5053259;28;20044;-54
2023/03/05 04:15:54;;;;;;;2.45;1.15;;;20.50;32.30;;;;;;5053372;28;20349;-51
2023/03/05 04:18:20;;;;;;;1.63;0.63;;;20.50;32.30;;;;;;5053050;28;20032;-50
2023/03/05 04:20:46;;;;;;;4.30;1.10;;;20.50;32.20;;;;;;5051932;28;20037;-52
2023/03/05 04:23:12;;;;;;;2.30;0.95;;;20.50;32.30;;;;;;5052301;28;20049;-53
2023/03/05 04:25:38;;;;;;;2.05;0.98;;;20.40;32.20;;;;;;5050320;28;20037;-53
2023/03/05 04:28:04;;;;;;;2.65;0.88;;;20.50;32.30;;;;;;5049278;28;20471;-52
2023/03/05 04:30:30;;;;;;;3.17;0.98;;;20.40;32.20;;;;;;5053048;28;20029;-55
2023/03/05 04:32:56;;;;;;;3.78;1.38;;;20.40;32.20;;;;;;5052143;28;20113;-54
2023/03/05 04:35:22;;;;;;;4.57;0.82;;;20.40;32.20;;;;;;5051479;28;20036;-49
2023/03/05 04:37:48;;;;;;;2.70;1.05;;;20.40;32.20;;;;;;5052796;28;20035;-51
2023/03/05 04:40:14;;;;;;;1.73;0.80;;;20.40;32.20;;;;;;5053087;28;20060;-55
2023/03/05 04:42:40;;;;;;;2.45;1.13;;;20.40;32.20;;;;;;5053565;28;20025;-53
2023/03/05 04:45:07;;;;;;;2.80;0.77;;;20.40;32.20;;;;;;5062495;28;20360;-54
2023/03/05 04:47:33;;;;;;;1.77;0.90;;;20.40;32.20;;;;;;5059912;28;20036;-52
2023/03/05 04:49:59;;;;;;;3.90;1.25;;;20.40;32.20;;;;;;5055599;28;20095;-52
2023/03/05 04:52:25;;;;;;;2.33;0.75;;;20.40;32.20;;;;;;5053642;28;20025;-52
2023/03/05 04:54:53;;;;;;;3.13;0.98;;;20.40;32.20;;;;;;5052554;28;20495;-53
2023/03/05 04:57:19;;;;;;;4.43;1.08;;;20.40;32.20;;;;;;5050880;28;20021;-49
2023/03/05 04:59:45;;;;;;;2.70;0.77;;;20.30;32.70;;;;;;5052364;28;20108;-51
2023/03/05 05:02:10;;;;;;;2.50;1.05;;;20.40;32.20;;;;;;5051098;28;20103;-50
2023/03/05 05:04:36;;;;;;;3.45;1.10;;;20.30;32.10;;;;;;5052755;28;20057;-50
2023/03/05 05:07:03;;;;;;;3.17;0.90;;;20.40;32.20;;;;;;5051441;28;20041;-51
2023/03/05 05:09:29;;;;;;;2.47;0.77;;;20.30;32.20;;;;;;5053074;28;20024;-54
2023/03/05 05:11:55;;;;;;;3.45;0.90;;;20.40;32.20;;;;;;5051648;28;20099;-51
2023/03/05 05:14:21;;;;;;;2.58;0.80;;;20.40;32.20;;;;;;5052848;28;20441;-51
2023/03/05 05:16:47;;;;;;;1.83;0.80;;;20.30;32.10;;;;;;5052279;28;20029;-56
2023/03/05 05:19:13;;;;;;;2.33;0.80;;;20.30;32.20;;;;;;5051760;28;20025;-51
2023/03/05 05:21:39;;;;;;;2.08;0.65;;;20.30;32.10;;;;;;5051386;28;20072;-53
2023/03/05 05:24:05;;;;;;;2.50;0.82;;;20.30;32.10;;;;;;5051169;28;20040;-55
2023/03/05 05:26:30;;;;;;;3.20;0.88;;;20.30;32.10;;;;;;5052992;28;20107;-56
2023/03/05 05:28:56;;;;;;;2.13;0.88;;;20.30;32.20;;;;;;5052352;28;20124;-51
2023/03/05 05:31:22;;;;;;;1.75;0.77;;;20.30;32.20;;;;;;5052810;28;20452;-50
2023/03/05 05:33:48;;;;;;;2.03;0.80;;;20.30;32.30;;;;;;5050632;28;20021;-52
2023/03/05 05:36:17;;;;;;;2.88;0.93;;;20.30;32.30;;;;;;5050062;28;20025;-51
2023/03/05 05:38:44;;;;;;;1.88;0.65;;;20.30;32.40;;;;;;5052480;28;20029;-53
2023/03/05 05:41:12;;;;;;;3.33;0.90;;;20.30;32.30;;;;;;5052416;28;20036;-51
2023/03/05 05:43:39;;;;;;;2.17;0.80;;;20.30;32.40;;;;;;5052450;28;20451;-54
2023/03/05 05:46:08;;;;;;;1.90;0.80;;;20.30;32.40;;;;;;5051483;28;20032;-53
2023/03/05 05:48:35;;;;;;;2.03;0.70;;;20.30;32.40;;;;;;5050194;28;20451;-53
2023/03/05 05:51:06;;;;;;;2.78;0.80;;;20.30;32.40;;;;;;5050966;28;20171;-52
2023/03/05 05:53:32;;;;;;;1.48;0.57;;;20.30;32.40;;;;;;5051902;28;20110;-53
2023/03/05 05:55:58;;;;;;;1.58;0.60;;;20.30;32.40;;;;;;5052317;28;20161;-53
2023/03/05 05:58:23;;;;;;;1.60;0.68;;;20.20;32.40;;;;;;5055151;28;20049;-54
2023/03/05 06:00:49;;;;;;;3.28;0.90;;;20.20;32.30;;;;;;5055919;28;20124;-54
2023/03/05 06:03:15;;;;;;;1.88;0.68;;;20.20;32.30;;;;;;5055939;28;20033;-53
2023/03/05 06:05:42;;;;;;;1.88;0.55;;;20.20;32.40;;;;;;5054054;28;20020;-51
2023/03/05 06:08:08;;;;;;;1.40;0.63;;;20.20;32.30;;;;;;5060365;28;20024;-53
2023/03/05 06:10:34;;;;;;;2.03;0.80;;;20.20;32.30;;;;;;5054907;28;20108;-50
2023/03/05 06:13:00;;;;;;;3.70;0.80;;;20.20;32.30;;;;;;5055124;28;20445;-54
2023/03/05 06:15:26;;;;;;;1.98;0.68;;;20.20;32.30;;;;;;5055589;28;20060;-52
2023/03/05 06:17:53;;;;;;;1.95;0.88;;;20.20;32.40;;;;;;5056688;28;20058;-53
2023/03/05 06:20:19;;;;;;;1.92;0.70;;;20.20;32.40;;;;;;5055516;28;20029;-53
2023/03/05 06:22:45;;;;;;;2.30;0.60;;;20.20;32.40;;;;;;5054621;28;20025;-53
2023/03/05 06:25:11;;;;;;;1.77;0.63;;;20.20;32.40;;;;;;5054540;28;20365;-55
2023/03/05 06:27:38;;;;;;;1.33;0.60;;;20.20;32.40;;;;;;5055619;28;20025;-49
2023/03/05 06:30:05;;;;;;;0.75;0.32;;;20.20;32.40;;;;;;5053369;28;20104;-53
2023/03/05 06:32:31;;;;;;;1.98;0.63;;;20.20;32.40;;;;;;5054097;28;20025;-51
2023/03/05 06:34:57;;;;;;;2.88;0.73;;;20.20;32.40;;;;;;5054632;28;20094;-50
2023/03/05 06:37:23;;;;;;;2.00;0.70;;;20.20;32.40;;;;;;5055854;28;20021;-52
2023/03/05 06:39:49;;;;;;;2.47;0.57;;;20.20;33.00;;;;;;5055100;28;20129;-52
2023/03/05 06:42:16;;;;;;;1.60;0.60;;;20.20;32.40;;;;;;5055322;28;20025;-54
2023/03/05 06:44:42;;;;;;;1.73;0.60;;;20.20;32.40;;;;;;5055328;28;20428;-52
2023/03/05 06:47:11;;;;;;;2.03;0.70;;;20.20;32.40;;;;;;5052826;28;20052;-52
2023/03/05 06:49:38;;;;;;;1.80;0.40;;;20.20;32.40;;;;;;5081833;28;20029;-51
2023/03/05 06:52:05;;;;;;;1.90;0.70;;;20.20;32.40;;;;;;5055270;28;20025;-51
2023/03/05 06:54:31;;;;;;;1.00;0.60;;;20.20;32.50;;;;;;5054888;28;20413;-51
2023/03/05 06:56:58;;;;;;;1.77;0.70;;;20.20;32.50;;;;;;5053994;28;20056;-54
2023/03/05 06:59:24;;;;;;;1.92;0.70;;;20.20;32.60;;;;;;5052726;28;20029;-51
2023/03/05 07:01:50;;;;;;;1.92;0.63;;;20.20;32.60;;;;;;5052555;28;20032;-53
2023/03/05 07:04:16;;;;;;;1.98;0.60;;;20.20;33.20;;;;;;5055016;28;20033;-53
2023/03/05 07:06:43;;;;;;;1.45;0.63;;;20.20;32.60;;;;;;5053669;28;20120;-53
2023/03/05 07:09:13;;;;;;;1.45;0.50;;;20.10;32.50;;;;;;5058224;28;20037;-53
2023/03/05 07:11:39;;;;;;;1.13;0.45;;;20.20;32.60;;;;;;5053995;28;20370;-53
2023/03/05 07:14:05;;;;;;;1.05;0.30;;;20.10;32.50;;;;;;5054425;28;20044;-53
2023/03/05 07:16:33;;;;;;;1.45;0.50;;;20.10;32.50;;;;;;5053980;28;20448;-52
2023/03/05 07:19:02;;;;;;;2.75;0.75;;;20.10;32.50;;;;;;5053975;28;20121;-52
2023/03/05 07:21:31;;;;;;;1.73;0.50;;;20.10;32.50;;;;;;5050288;28;20360;-51
2023/03/05 07:23:59;;;;;;;2.15;0.47;;;20.10;32.60;;;;;;5050657;28;20481;-56
2023/03/05 07:26:26;;;;;;;1.73;0.50;;;20.10;32.60;;;;;;5050896;28;20053;-50
2023/03/05 07:28:53;;;;;;;1.75;0.45;;;20.10;32.60;;;;;;5054469;28;20032;-54
2023/03/05 07:31:25;;;;;;;1.60;0.65;;;20.10;32.60;;;;;;5053081;28;20437;-55
2023/03/05 07:33:52;;;;;;;3.10;0.70;;;20.10;32.60;;;;;;5052370;28;20086;-55
2023/03/05 07:36:18;;;;;;;2.40;0.73;;;20.10;32.60;;;;;;5053414;28;20021;-52
2023/03/05 07:38:44;;;;;;;1.50;0.60;;;20.10;32.60;;;;;;5049076;28;20028;-54
2023/03/05 07:41:13;;;;;;;1.13;0.50;;;20.10;33.20;;;;;;5053838;28;20037;-54
2023/03/05 07:43:40;;;;;;;1.85;0.50;;;20.10;32.60;;;;;;5047957;28;20407;-53
2023/03/05 07:46:08;;;;;;;2.38;0.57;;;20.10;32.60;;;;;;5053723;28;20464;-49
2023/03/05 07:48:34;;;;;;;1.20;0.40;;;20.10;32.60;;;;;;5053858;28;20115;-55
2023/03/05 07:51:14;;;;;;;1.65;0.55;;;20.10;32.50;;;;;;5052395;28;20436;-50
2023/03/05 07:53:41;;;;;;;2.05;0.60;;;20.10;32.50;;;;;;5057009;28;20033;-53
2023/03/05 07:56:09;;;;;;;2.35;0.65;;;20.10;32.40;;;;;;5053619;28;20140;-52
2023/03/05 07:58:35;;;;;;;2.50;0.80;;;20.10;32.40;;;;;;5053501;28;20090;-54
2023/03/05 08:01:01;;;;;;;3.22;1.00;;;20.10;32.40;;;;;;5052988;28;20037;-54
2023/03/05 08:03:27;;;;;;;1.92;0.80;;;20.10;32.30;;;;;;5063001;28;20085;-55
2023/03/05 08:05:53;;;;;;;1.73;0.80;;;20.10;32.30;;;;;;5062637;28;20017;-52
2023/03/05 08:08:19;;;;;;;1.88;0.80;;;20.10;32.30;;;;;;5051980;28;20057;-54
2023/03/05 08:10:45;;;;;;;2.35;1.20;;;20.10;32.30;;;;;;5053520;28;20483;-52
2023/03/05 08:13:11;;;;;;;2.55;1.40;;;20.10;32.30;;;;;;5048713;28;20140;-53
2023/03/05 08:15:37;;;;;;;3.30;1.75;;;20.10;32.30;;;;;;5054742;28;20032;-52
2023/03/05 08:18:03;;;;;;;3.80;2.10;;;20.10;32.30;;;;;;5054102;28;20028;-54
2023/03/05 08:20:29;;;;;;;2.25;1.52;;;20.10;32.30;;;;;;5052496;28;20040;-50
2023/03/05 08:22:55;;;;;;;6.10;2.10;;;20.10;32.40;;;;;;5051427;28;20433;-52
2023/03/05 08:25:21;;;;;;;4.88;3.28;;;20.10;32.30;;;;;;5053323;28;20040;-52
2023/03/05 08:27:48;;;;;;;5.63;3.72;;;20.10;32.40;;;;;;5051511;28;20059;-56
2023/03/05 08:30:17;;;;;;;5.22;3.42;;;20.10;32.50;;;;;;5061417;28;20123;-53
2023/03/05 08:32:43;;;;;;;6.13;4.13;;;20.10;32.50;;;;;;5054194;28;20021;-52
2023/03/05 08:35:09;;;;;;;6.63;4.10;;;20.10;32.60;;;;;;5053629;28;20029;-50
2023/03/05 08:37:36;;;;;;;5.35;3.63;;;20.10;32.60;;;;;;5063168;28;20033;-52
2023/03/05 08:40:03;;;;;;;7.75;4.43;;;20.10;32.60;;;;;;5053835;28;20063;-50
2023/03/05 08:42:29;;;;;;;5.70;3.55;;;20.10;32.50;;;;;;5057418;28;20040;-52
2023/03/05 08:44:57;;;;;;;5.10;3.28;;;20.10;32.60;;;;;;5074873;28;20029;-47
2023/03/05 08:47:25;;;;;;;5.00;2.70;;;20.10;32.60;;;;;;5074610;28;20031;-48
2023/03/05 08:49:57;;;;;;;5.25;2.80;;;20.10;32.60;;;;;;5060508;28;20041;-51
2023/03/05 08:52:26;;;;;;;4.72;3.00;;;20.10;32.50;;;;;;5054717;28;20029;-52
2023/03/05 08:54:52;;;;;;;5.00;3.10;;;20.10;32.50;;;;;;5055041;28;20091;-48
2023/03/05 08:57:19;;;;;;;4.43;3.17;;;20.20;32.50;;;;;;5045705;28;20030;-52
2023/03/05 08:59:45;;;;;;;5.47;3.08;;;20.20;32.50;;;;;;5073620;28;20115;-53
2023/03/05 09:02:12;;;;;;;6.45;3.55;;;20.20;32.50;;;;;;5053575;28;20116;-50
2023/03/05 09:04:38;;;;;;;5.25;3.33;;;20.30;32.50;;;;;;5050515;28;20033;-50
2023/03/05 09:07:04;;;;;;;4.40;2.72;;;20.30;32.40;;;;;;5052502;28;20187;-49
2023/03/05 09:09:31;;;;;;;5.07;3.38;;;20.30;32.30;;;;;;5051088;28;20100;-50
2023/03/05 09:11:58;;;;;;;4.60;2.70;;;20.30;32.30;;;;;;5052035;28;20039;-53
2023/03/05 09:14:26;;;;;;;4.82;2.83;;;20.40;32.30;;;;;;5049359;28;20115;-53
2023/03/05 09:16:53;;;;;;;4.70;2.97;;;20.40;32.20;;;;;;5052754;28;20108;-52
2023/03/05 09:19:19;;;;;;;5.35;2.95;;;20.40;32.20;;;;;;5056822;28;20025;-53
2023/03/05 09:21:45;;;;;;;6.90;2.85;;;20.40;32.00;;;;;;5052227;28;20037;-54
2023/03/05 09:24:10;;;;;;;3.95;2.53;;;20.40;32.00;;;;;;5052847;28;20032;-50
2023/03/05 09:26:36;;;;;;;4.80;2.97;;;20.50;31.90;;;;;;5052754;28;20067;-54
2023/03/05 09:29:02;;;;;;;4.55;3.00;;;20.50;31.90;;;;;;5052666;28;20021;-54
2023/03/05 09:31:29;;;;;;;4.47;3.20;;;20.50;31.90;;;;;;5052771;28;20348;-51
2023/03/05 09:33:54;;;;;;;4.40;2.90;;;20.50;31.90;;;;;;5053879;28;20116;-55
2023/03/05 09:36:27;;;;;;;4.55;2.92;;;20.50;31.90;;;;;;5057010;28;20115;-50
2023/03/05 09:38:53;;;;;;;4.75;3.22;;;20.60;31.90;;;;;;5056271;28;20138;-51
2023/03/05 09:41:28;;;;;;;5.72;3.67;;;20.60;31.90;;;;;;5056013;28;20124;-53
2023/03/05 09:44:15;;;;;;;5.43;3.67;;;20.60;31.90;;;;;;5055034;28;20078;-52
2023/03/05 09:47:06;;;;;;;5.50;3.70;;;20.60;31.90;;;;;;5055415;28;20041;-53
2023/03/05 09:50:06;;;;;;;6.75;4.55;;;20.60;31.90;;;;;;5053989;28;20090;-52
2023/03/05 09:52:44;;;;;;;7.05;4.78;;;20.60;31.90;;;;;;5051434;28;20032;-53
2023/03/05 09:55:21;;;;;;;6.88;4.65;;;20.60;31.90;;;;;;5055451;28;20407;-49
2023/03/05 09:57:54;;;;;;;6.70;4.20;;;20.70;32.00;;;;;;5054585;28;20025;-48
2023/03/05 10:00:42;;;;;;;6.45;4.50;;;20.70;32.00;;;;;;5052021;28;20048;-52
2023/03/05 10:03:21;;;;;;;7.20;4.97;;;20.70;32.00;;;;;;5056527;28;20491;-51
2023/03/05 10:06:04;;;;;;;6.63;4.70;;;20.70;32.00;;;;;;5053398;28;20107;-53
2023/03/05 10:09:08;;;;;;;7.10;4.77;;;20.70;32.00;;;;;;5057018;28;20029;-51
2023/03/05 10:12:00;;;;;;;7.38;5.22;;;20.70;32.00;;;;;;5054059;28;20460;-50
2023/03/05 10:14:37;;;;;;;7.70;5.18;;;20.70;31.90;;;;;;5053631;28;20049;-52
2023/03/05 10:17:34;;;;;;;7.53;5.07;;;20.70;31.80;;;;;;5054949;28;20028;-54
2023/03/05 10:20:09;;;;;;;8.93;5.30;;;20.70;31.70;;;;;;5055302;28;20445;-52
2023/03/05 10:22:53;;;;;;;8.18;5.63;;;20.70;31.70;;;;;;5051997;28;20100;-52
2023/03/05 10:25:25;;;;;;;8.60;5.60;;;20.70;31.70;;;;;;5054262;28;20113;-52
2023/03/05 10:27:58;;;;;;;7.85;5.63;;;20.70;31.70;;;;;;5053979;28;20410;-54
2023/03/05 10:30:29;;;;;;;11.18;6.28;;;20.70;31.70;;;;;;5055585;28;20036;-53
2023/03/05 10:33:09;;;;;;;10.40;7.75;;;20.70;31.60;;;;;;5053806;28;20452;-51
2023/03/05 10:35:55;;;;;;;13.55;9.75;;;20.70;31.80;;;;;;5054546;28;20029;-52
2023/03/05 10:38:21;;;;;;;18.10;11.63;;;20.70;32.00;;;;;;5053306;28;20523;-51
2023/03/05 10:41:31;;;;;;;21.42;14.25;;;20.70;32.30;;;;;;5055412;28;20116;-51
2023/03/05 10:44:14;;;;;;;25.85;17.08;;;20.80;33.90;;;;;;5041836;28;20035;-53
2023/03/05 10:46:40;;;;;;;28.38;20.90;;;20.80;35.50;;;;;;5054137;28;20037;-50
2023/03/05 10:49:24;;;;;;;30.90;21.55;;;20.80;36.70;;;;;;5056439;28;20025;-53
2023/03/05 10:52:12;;;;;;;32.33;22.67;;;20.90;37.10;;;;;;5053487;28;20025;-54
2023/03/05 10:54:41;;;;;;;31.70;22.73;;;20.90;36.80;;;;;;5055252;28;20029;-52
2023/03/05 10:57:23;;;;;;;36.63;26.02;;;20.90;37.20;;;;;;5054289;28;20467;-54
2023/03/05 11:00:12;;;;;;;37.55;26.48;;;20.90;38.40;;;;;;5056463;28;20025;-52
2023/03/05 11:02:56;;;;;;;39.47;26.55;;;21.00;39.30;;;;;;5051546;28;20310;-51
2023/03/05 11:05:37;;;;;;;51.70;30.58;;;21.00;39.90;;;;;;5053659;28;20040;-51
2023/03/05 11:08:33;;;;;;;50.53;31.13;;;21.00;40.10;;;;;;5056698;28;20386;-53
2023/03/05 11:11:18;;;;;;;48.10;30.13;;;21.00;41.20;;;;;;5058495;28;20074;-56
2023/03/05 11:13:50;;;;;;;;;;;21.10;41.80;;;;;;5063636;28;20068;-50
2023/03/05 11:16:26;;;;;;;47.90;30.20;;;21.10;42.20;;;;;;5054717;28;19917;-57
2023/03/05 11:19:13;;;;;;;42.78;28.20;;;21.10;42.20;;;;;;5057934;28;20087;-57
2023/03/05 11:21:40;;;;;;;40.63;25.73;;;21.10;41.90;;;;;;5051111;28;20041;-56
2023/03/05 11:24:18;;;;;;;40.58;26.35;;;21.10;41.20;;;;;;5057161;28;20029;-53
2023/03/05 11:26:50;;;;;;;41.33;26.92;;;21.10;40.80;;;;;;5077279;28;20090;-56
2023/03/05 11:29:29;;;;;;;34.92;24.17;;;21.10;40.60;;;;;;5052476;28;20052;-56
2023/03/05 11:32:13;;;;;;;31.10;22.60;;;21.20;40.00;;;;;;5052177;28;21477;-53
2023/03/05 11:34:39;;;;;;;27.52;20.08;;;21.20;39.40;;;;;;5054267;28;20326;-54
2023/03/05 11:37:06;;;;;;;25.80;18.63;;;21.20;39.90;;;;;;5054751;28;20052;-54
2023/03/05 11:39:36;;;;;;;30.10;21.60;;;21.20;40.50;;;;;;5053177;28;20115;-53
2023/03/05 11:42:24;;;;;;;35.50;20.98;;;21.20;41.00;;;;;;5059830;28;20400;-53
2023/03/05 11:44:54;;;;;;;28.02;20.13;;;21.30;41.20;;;;;;5055797;28;20044;-52
2023/03/05 11:47:44;;;;;;;35.47;23.08;;;21.20;41.10;;;;;;5047023;28;20025;-49
2023/03/05 11:50:22;;;;;;;30.30;21.65;;;21.30;40.90;;;;;;5050454;28;20033;-54
2023/03/05 11:52:51;;;;;;;28.35;20.80;;;21.30;40.90;;;;;;5053980;28;20071;-48
2023/03/05 11:55:29;;;;;;;29.80;20.23;;;21.30;40.50;;;;;;5052960;28;20033;-52
2023/03/05 11:58:21;;;;;;;27.17;19.42;;;21.30;40.10;;;;;;5049706;28;20120;-61
2023/03/05 12:00:47;;;;;;;28.52;18.38;;;21.30;39.80;;;;;;5051811;28;20075;-53
2023/03/05 12:03:18;;;;;;;22.85;15.60;;;21.30;39.40;;;;;;5051627;28;20033;-59
2023/03/05 12:05:55;;;;;;;22.60;14.65;;;21.40;39.00;;;;;;5052834;28;20075;-59
2023/03/05 12:08:34;;;;;;;20.17;13.95;;;21.40;38.50;;;;;;5053463;28;20045;-59
2023/03/05 12:11:10;;;;;;;21.60;13.38;;;21.40;38.30;;;;;;5053003;28;20032;-57
2023/03/05 12:13:42;;;;;;;19.70;12.63;;;21.40;38.10;;;;;;5053004;28;20052;-59
2023/03/05 12:16:23;;;;;;;19.98;13.45;;;21.50;37.90;;;;;;5050996;28;20032;-60
2023/03/05 12:19:27;;;;;;;23.20;13.30;;;21.50;37.70;;;;;;5052555;28;20109;-59
2023/03/05 12:21:54;;;;;;;19.10;13.93;;;21.60;37.40;;;;;;5043341;28;20526;-60
2023/03/05 12:24:33;;;;;;;18.13;13.80;;;21.80;37.20;;;;;;5051116;28;20021;-57
2023/03/05 12:27:01;;;;;;;17.75;13.35;;;21.90;37.00;;;;;;5050327;28;20575;-60
2023/03/05 12:29:41;;;;;;;20.77;14.23;;;22.00;36.60;;;;;;5048721;28;20040;-58
2023/03/05 12:32:27;;;;;;;21.80;15.55;;;22.10;36.30;;;;;;5045699;28;20100;-55
2023/03/05 12:34:56;;;;;;;20.67;14.88;;;22.20;36.10;;;;;;5049677;28;20021;-57
2023/03/05 12:37:22;;;;;;;20.10;15.65;;;22.30;35.80;;;;;;5043006;28;21377;-56
2023/03/05 12:39:57;;;;;;;19.10;14.10;;;22.40;35.60;;;;;;5052476;28;20118;-54
2023/03/05 12:42:30;;;;;;;20.60;15.45;;;22.50;35.40;;;;;;5049409;28;20073;-56
2023/03/05 12:45:11;;;;;;;22.42;16.02;;;22.60;35.20;;;;;;5047390;28;20094;-58
2023/03/05 12:47:38;;;;;;;24.42;17.52;;;22.70;35.00;;;;;;5052054;28;20428;-59
2023/03/05 12:50:25;;;;;;;22.88;17.42;;;22.70;34.80;;;;;;5052631;28;20049;-58
2023/03/05 12:52:55;;;;;;;22.13;17.52;;;22.80;34.70;;;;;;5050413;28;20036;-55
2023/03/05 12:55:43;;;;;;;23.05;18.30;;;22.80;34.50;;;;;;5051892;28;20333;-60